Terminal Aerodrome Forecast
Issued by NWS

Home | Current Version | Previous Version | Text Only | Print | Product List | Glossary Off
Versions: 1 2 3 4 5 6 7 8 9 10 11 12 13 14 15 16

000
FTUS43 KBIS 221129
TAFJMS
TAF
KJMS 221129Z 2212/2312 30008KT 5SM BR OVC006
     FM222000 29010KT P6SM OVC012
     FM230600 26008KT 5SM BR OVC008=

USA.gov is the U.S. government's official web portal to all federal, state and local government web resources and services.